Time;durP1;ratioP1;P1;durP2;ratioP2;P2;SDS_P1;SDS_P2;PMS_P1;PMS_P2;Temp;Humidity;BMP_temperature;BMP_pressure;BME280_temperature;BME280_humidity;BME280_pressure;Samples;Min_cycle;Max_cycle;Signal;HPM_P1;HPM_P2
2022/01/31 00:02:10;;;;;;;;;;;;;;;4.64;62.05;100022.16;4965854;28;1247;-90
2022/01/31 00:04:37;;;;;;;;;;;;;;;4.58;62.19;100017.63;4965670;28;1837;-90
2022/01/31 00:07:03;;;;;;;;;;;;;;;4.63;62.19;100012.53;4966988;28;1213;-89
2022/01/31 00:09:30;;;;;;;;;;;;;;;4.63;62.01;100014.38;4954525;28;1761;-90
2022/01/31 00:12:00;;;;;;;;;;;;;;;4.65;62.09;100012.34;4977849;28;1379;-89
2022/01/31 00:14:34;;;;;;;;;;;;;;;4.68;61.98;100012.78;4958974;29;1885;-90
2022/01/31 00:17:01;;;;;;;;;;;;;;;4.65;62.11;100015.03;4943359;29;1258;-90
2022/01/31 00:19:28;;;;;;;;;;;;;;;4.64;62.06;100006.16;4960926;28;1699;-90
2022/01/31 00:21:54;;;;;;;;;;;;;;;4.69;61.89;100002.94;4962840;28;1914;-90
2022/01/31 00:24:21;;;;;;;;;;;;;;;4.74;61.69;100004.00;4955375;28;2333;-89
2022/01/31 00:26:47;;;;;;;;;;;;;;;4.69;61.90;100002.94;4962416;28;1784;-89
2022/01/31 00:29:14;;;;;;;;;;;;;;;4.64;62.01;99995.50;4954659;28;1801;-89
2022/01/31 00:31:40;;;;;;;;;;;;;;;4.64;62.02;99990.16;4958798;29;1305;-90
2022/01/31 00:34:07;;;;;;;;;;;;;;;4.69;61.76;99998.41;4958684;29;1920;-89
2022/01/31 00:36:34;;;;;;;;;;;;;;;4.63;62.08;99993.03;4959418;28;1412;-88
2022/01/31 00:39:00;;;;;;;;;;;;;;;4.66;61.85;99988.13;4965291;28;1380;-90
2022/01/31 00:41:27;;;;;;;;;;;;;;;4.64;61.96;99984.00;4962404;28;1914;-90
2022/01/31 00:44:00;;;;;;;;;;;;;;;4.66;62.07;99982.78;4970302;28;1746;-90
2022/01/31 00:46:33;;;;;;;;;;;;;;;4.64;61.96;99982.16;4960502;28;1294;-90
2022/01/31 00:49:00;;;;;;;;;;;;;;;4.64;62.14;99986.69;4958317;28;2037;-90
2022/01/31 00:51:26;;;;;;;;;;;;;;;4.67;61.69;99988.94;4962976;28;1300;-90
2022/01/31 00:53:53;;;;;;;;;;;;;;;4.69;61.59;99989.59;4958864;28;1689;-90
2022/01/31 00:56:19;;;;;;;;;;;;;;;4.67;61.69;99984.44;4947260;28;2274;-90
2022/01/31 00:58:46;;;;;;;;;;;;;;;4.68;61.80;99979.94;4962053;28;1527;-90
2022/01/31 01:01:12;;;;;;;;;;;;;;;4.69;61.95;99974.41;4961590;28;1910;-89
2022/01/31 01:03:40;;;;;;;;;;;;;;;4.64;61.91;99992.81;4953301;29;1698;-89
2022/01/31 01:06:06;;;;;;;;;;;;;;;4.66;61.66;99981.97;4975573;28;2231;-89
2022/01/31 01:08:33;;;;;;;;;;;;;;;4.68;61.70;99972.75;4961308;28;2039;-90
2022/01/31 01:10:59;;;;;;;;;;;;;;;4.67;61.78;99975.63;4945642;29;1651;-90
2022/01/31 01:13:26;;;;;;;;;;;;;;;4.67;61.76;99965.75;4951716;28;1304;-89
2022/01/31 01:15:52;;;;;;;;;;;;;;;4.66;61.81;99966.78;4960064;28;1993;-90
2022/01/31 01:18:19;;;;;;;;;;;;;;;4.69;61.66;99961.06;4970160;28;1755;-91
2022/01/31 01:20:45;;;;;;;;;;;;;;;4.68;61.71;99955.94;4961173;28;1919;-90
2022/01/31 01:23:12;;;;;;;;;;;;;;;4.68;61.70;99958.63;4957812;28;1687;-89
2022/01/31 01:25:38;;;;;;;;;;;;;;;4.66;61.71;99953.47;4947302;28;1444;-89
2022/01/31 01:28:05;;;;;;;;;;;;;;;4.68;61.74;99950.59;4959526;28;2140;-90
2022/01/31 01:30:31;;;;;;;;;;;;;;;4.73;61.50;99950.81;4964793;28;1534;-90
2022/01/31 01:33:06;;;;;;;;;;;;;;;4.75;61.35;99952.28;4961692;28;1664;-91
2022/01/31 01:35:35;;;;;;;;;;;;;;;4.71;61.73;99955.56;4967032;28;1898;-90
2022/01/31 01:38:06;;;;;;;;;;;;;;;4.68;61.69;99955.94;4945826;28;1896;-90
2022/01/31 01:40:32;;;;;;;;;;;;;;;4.71;61.61;99936.88;4958823;28;1910;-89
2022/01/31 01:42:59;;;;;;;;;;;;;;;4.70;61.75;99930.69;4957564;28;1866;-90
2022/01/31 01:45:26;;;;;;;;;;;;;;;4.68;61.69;99932.75;4941371;29;1198;-89
2022/01/31 01:47:53;;;;;;;;;;;;;;;4.69;61.73;99928.25;4961655;28;1896;-90
2022/01/31 01:50:35;;;;;;;;;;;;;;;4.68;61.67;99919.41;5046938;27;1482457;-88
2022/01/31 01:53:02;;;;;;;;;;;;;;;4.68;61.53;99906.06;5070244;28;1689;-90
2022/01/31 01:55:28;;;;;;;;;;;;;;;4.67;61.68;99908.94;5075007;28;1200;-92
2022/01/31 01:57:56;;;;;;;;;;;;;;;4.69;61.70;99907.72;5072900;28;2346;-90
2022/01/31 02:00:27;;;;;;;;;;;;;;;4.72;61.55;99907.31;5077055;28;1412;-90
2022/01/31 02:02:54;;;;;;;;;;;;;;;4.69;61.62;99899.72;5061303;28;1402;-89
2022/01/31 02:05:20;;;;;;;;;;;;;;;4.71;61.61;99899.53;5074590;28;1279;-88
2022/01/31 02:07:47;;;;;;;;;;;;;;;4.70;61.36;99898.69;5064390;28;1735;-89
2022/01/31 02:10:13;;;;;;;;;;;;;;;4.74;61.59;99899.13;5055963;28;1969;-90
2022/01/31 02:12:41;;;;;;;;;;;;;;;4.64;61.87;99896.81;5057384;28;1540;-90
2022/01/31 02:15:07;;;;;;;;;;;;;;;4.67;61.76;99898.25;5059599;28;1373;-89
2022/01/31 02:17:34;;;;;;;;;;;;;;;4.74;61.41;99893.78;5057221;28;1407;-89
2022/01/31 02:20:01;;;;;;;;;;;;;;;4.70;61.63;99884.53;5057146;28;1367;-91
2022/01/31 02:22:27;;;;;;;;;;;;;;;4.72;61.57;99890.50;5073244;28;1283;-90
2022/01/31 02:24:54;;;;;;;;;;;;;;;4.71;61.44;99895.00;5072665;28;1996;-89
2022/01/31 02:27:20;;;;;;;;;;;;;;;4.67;61.60;99890.25;5063027;28;2044;-89
2022/01/31 02:29:47;;;;;;;;;;;;;;;4.71;61.49;99892.34;5060108;28;1976;-89
2022/01/31 02:32:14;;;;;;;;;;;;;;;4.68;61.57;99878.59;5073612;28;1804;-89
2022/01/31 02:34:41;;;;;;;;;;;;;;;4.68;61.64;99873.25;5069266;28;1838;-90
2022/01/31 02:37:10;;;;;;;;;;;;;;;4.68;61.48;99870.59;5069821;28;2050;-89
2022/01/31 02:39:36;;;;;;;;;;;;;;;4.70;61.67;99857.84;5068143;28;1350;-88
2022/01/31 02:42:03;;;;;;;;;;;;;;;4.69;61.67;99862.38;5062517;28;1420;-90
2022/01/31 02:44:29;;;;;;;;;;;;;;;4.78;61.26;99857.69;5058713;28;1823;-91
2022/01/31 02:46:57;;;;;;;;;;;;;;;4.72;61.37;99853.97;5055905;28;1401;-90
2022/01/31 02:49:27;;;;;;;;;;;;;;;4.71;61.39;99852.31;5059459;28;2051;-90
2022/01/31 02:51:57;;;;;;;;;;;;;;;4.72;61.45;99848.63;5055073;28;2324;-90
2022/01/31 02:54:24;;;;;;;;;;;;;;;4.76;61.27;99849.91;5038726;28;1970;-90
2022/01/31 02:56:51;;;;;;;;;;;;;;;4.71;61.56;99847.00;5042046;28;1996;-89
2022/01/31 02:59:17;;;;;;;;;;;;;;;4.69;61.54;99840.19;5047984;28;2052;-91
2022/01/31 03:01:44;;;;;;;;;;;;;;;4.69;61.50;99845.53;5042490;28;1347;-90
2022/01/31 03:04:10;;;;;;;;;;;;;;;4.72;61.47;99842.47;5036010;28;2146;-90
2022/01/31 03:06:38;;;;;;;;;;;;;;;4.78;61.16;99834.50;5034304;28;1915;-89
2022/01/31 03:09:05;;;;;;;;;;;;;;;4.76;61.38;99841.91;5037284;28;2116;-90
2022/01/31 03:11:31;;;;;;;;;;;;;;;4.66;61.57;99835.28;5040263;28;1716;-89
2022/01/31 03:13:58;;;;;;;;;;;;;;;4.72;61.45;99835.28;5038353;28;1718;-89
2022/01/31 03:16:24;;;;;;;;;;;;;;;4.74;61.47;99832.44;5041236;28;1152;-90
2022/01/31 03:18:51;;;;;;;;;;;;;;;4.73;61.18;99830.78;5039320;28;1706;-89
2022/01/31 03:21:18;;;;;;;;;;;;;;;4.78;61.17;99825.66;5034422;28;1589;-88
2022/01/31 03:23:46;;;;;;;;;;;;;;;4.73;61.28;99820.91;5032440;28;2206;-89
2022/01/31 03:26:12;;;;;;;;;;;;;;;4.72;61.37;99818.47;5035852;28;2364;-89
2022/01/31 03:28:39;;;;;;;;;;;;;;;4.70;61.46;99815.97;5033750;28;2104;-90
2022/01/31 03:31:06;;;;;;;;;;;;;;;4.72;61.42;99813.94;5020067;28;1205;-89
2022/01/31 03:33:33;;;;;;;;;;;;;;;4.81;61.06;99814.59;5029763;28;1735;-89
2022/01/31 03:36:00;;;;;;;;;;;;;;;4.75;61.19;99813.53;5040511;28;1302;-90
2022/01/31 03:38:28;;;;;;;;;;;;;;;4.77;61.17;99805.34;5038518;28;1562;-89
2022/01/31 03:40:54;;;;;;;;;;;;;;;4.72;61.29;99808.63;5042781;28;1254;-89
2022/01/31 03:43:21;;;;;;;;;;;;;;;4.75;61.35;99810.06;5032279;28;1596;-90
2022/01/31 03:45:48;;;;;;;;;;;;;;;4.72;61.45;99802.47;5021423;28;1221;-90
2022/01/31 03:48:14;;;;;;;;;;;;;;;4.77;61.13;99800.84;5026400;28;1779;-89
2022/01/31 03:50:41;;;;;;;;;;;;;;;4.75;61.56;99800.22;5039756;28;1906;-89
2022/01/31 03:53:07;;;;;;;;;;;;;;;4.68;61.47;99791.38;5027772;28;1735;-89
2022/01/31 03:55:34;;;;;;;;;;;;;;;4.72;61.43;99789.94;5020314;28;1297;-89
2022/01/31 03:58:00;;;;;;;;;;;;;;;4.73;61.31;99788.91;5035543;28;1952;-89
2022/01/31 04:00:27;;;;;;;;;;;;;;;4.70;61.23;99794.63;5020856;28;1237;-89
2022/01/31 04:02:53;;;;;;;;;;;;;;;4.70;61.30;99794.63;5020843;28;1568;-88
2022/01/31 04:05:20;;;;;;;;;;;;;;;4.70;61.46;99794.63;5033838;28;1312;-89
2022/01/31 04:07:47;;;;;;;;;;;;;;;4.72;61.39;99799.78;5038418;28;1258;-89
2022/01/31 04:10:13;;;;;;;;;;;;;;;4.86;60.99;99796.16;5038173;28;1918;-91
2022/01/31 04:12:40;;;;;;;;;;;;;;;4.83;61.03;99783.22;5039091;28;2161;-90
2022/01/31 04:15:07;;;;;;;;;;;;;;;4.77;60.95;99765.34;5056133;28;2324;-89
2022/01/31 04:17:33;;;;;;;;;;;;;;;4.74;61.37;99763.06;5023548;28;1732;-90
2022/01/31 04:20:00;;;;;;;;;;;;;;;4.74;61.37;99771.06;5040313;28;1226;-89
2022/01/31 04:22:30;;;;;;;;;;;;;;;4.73;61.38;99778.22;5038505;28;1805;-90
2022/01/31 04:25:01;;;;;;;;;;;;;;;4.76;61.14;99771.69;5023970;28;2004;-90
2022/01/31 04:27:32;;;;;;;;;;;;;;;4.76;61.26;99769.00;5028717;28;1237;-89
2022/01/31 04:29:59;;;;;;;;;;;;;;;4.74;61.33;99771.06;5038152;28;1914;-89
2022/01/31 04:32:25;;;;;;;;;;;;;;;4.72;61.32;99770.44;5024297;28;1297;-89
2022/01/31 04:34:52;;;;;;;;;;;;;;;4.75;61.31;99772.72;5039704;28;1572;-89
2022/01/31 04:37:19;;;;;;;;;;;;;;;4.74;61.33;99774.56;5041753;28;1290;-89
2022/01/31 04:39:45;;;;;;;;;;;;;;;4.78;61.16;99781.13;5036955;28;1781;-89
2022/01/31 04:42:12;;;;;;;;;;;;;;;4.76;61.21;99771.69;5022577;28;1187;-89
2022/01/31 04:44:38;;;;;;;;;;;;;;;4.74;61.13;99766.56;5034105;28;1759;-89
2022/01/31 04:47:05;;;;;;;;;;;;;;;4.75;61.13;99775.38;5037358;28;1776;-90
2022/01/31 04:49:33;;;;;;;;;;;;;;;4.73;61.24;99769.41;5036145;28;2244;-88
2022/01/31 04:52:00;;;;;;;;;;;;;;;4.71;61.36;99764.28;5038874;28;1203;-89
2022/01/31 04:54:27;;;;;;;;;;;;;;;4.80;61.19;99761.44;5037505;28;1889;-89
2022/01/31 04:56:53;;;;;;;;;;;;;;;4.73;61.31;99748.88;5038516;28;1474;-89
2022/01/31 04:59:20;;;;;;;;;;;;;;;4.73;61.21;99761.41;5026788;28;1931;-90
2022/01/31 05:01:48;;;;;;;;;;;;;;;4.75;61.14;99762.84;5039302;28;1175;-90
2022/01/31 05:04:15;;;;;;;;;;;;;;;4.79;61.01;99765.94;5033139;28;1827;-89
2022/01/31 05:06:43;;;;;;;;;;;;;;;4.81;60.94;99763.91;5023025;28;2120;-88
2022/01/31 05:09:11;;;;;;;;;;;;;;;4.81;60.93;99769.25;5029212;28;2003;-89
2022/01/31 05:11:37;;;;;;;;;;;;;;;4.74;61.30;99768.41;5038315;28;1375;-89
2022/01/31 05:14:04;;;;;;;;;;;;;;;4.78;60.89;99767.78;5036615;28;1773;-89
2022/01/31 05:16:30;;;;;;;;;;;;;;;4.74;61.18;99755.88;5035411;28;1158;-89
2022/01/31 05:18:57;;;;;;;;;;;;;;;4.75;61.10;99757.53;5030357;28;2087;-89
2022/01/31 05:21:23;;;;;;;;;;;;;;;4.72;61.19;99752.59;5038809;28;1273;-88
2022/01/31 05:23:50;;;;;;;;;;;;;;;4.71;61.22;99750.97;5027742;28;1909;-89
2022/01/31 05:26:17;;;;;;;;;;;;;;;4.71;61.21;99758.13;5019098;28;1194;-90
2022/01/31 05:28:43;;;;;;;;;;;;;;;4.70;61.31;99754.63;5025880;28;1884;-89
2022/01/31 05:31:10;;;;;;;;;;;;;;;4.77;61.11;99752.00;5037763;28;1977;-90
2022/01/31 05:33:36;;;;;;;;;;;;;;;4.75;60.98;99751.38;5033244;28;1642;-90
2022/01/31 05:36:03;;;;;;;;;;;;;;;4.67;61.35;99746.22;5018055;28;1301;-90
2022/01/31 05:38:34;;;;;;;;;;;;;;;4.69;61.34;99744.19;5023748;28;1612;-90
2022/01/31 05:41:04;;;;;;;;;;;;;;;4.70;61.29;99746.63;5038076;28;1272;-90
2022/01/31 05:43:30;;;;;;;;;;;;;;;4.73;61.18;99748.06;5035224;28;1861;-89
2022/01/31 05:45:57;;;;;;;;;;;;;;;4.77;61.03;99742.16;5038247;28;1445;-90
2022/01/31 05:48:24;;;;;;;;;;;;;;;4.71;61.03;99747.47;5036073;28;2166;-89
2022/01/31 05:50:50;;;;;;;;;;;;;;;4.76;61.07;99742.34;5032738;28;1910;-89
2022/01/31 05:53:17;;;;;;;;;;;;;;;4.74;60.91;99747.88;5020202;28;2041;-89
2022/01/31 05:55:43;;;;;;;;;;;;;;;4.74;61.13;99755.06;5037493;28;1252;-89
2022/01/31 05:58:10;;;;;;;;;;;;;;;4.71;61.23;99753.63;5035279;28;1790;-88
2022/01/31 06:00:37;;;;;;;;;;;;;;;4.65;61.35;99759.75;5037185;28;1200;-89
2022/01/31 06:03:04;;;;;;;;;;;;;;;4.77;61.10;99765.34;5032782;28;2175;-89
2022/01/31 06:05:30;;;;;;;;;;;;;;;4.77;61.23;99773.34;5034548;28;1906;-88
2022/01/31 06:07:57;;;;;;;;;;;;;;;4.75;61.14;99765.53;5033834;28;1791;-89
2022/01/31 06:10:24;;;;;;;;;;;;;;;4.74;61.06;99757.75;5018476;28;1914;-89
2022/01/31 06:12:51;;;;;;;;;;;;;;;4.72;61.17;99749.91;5036775;28;2101;-89
2022/01/31 06:15:18;;;;;;;;;;;;;;;4.72;61.19;99754.44;5033994;28;1134;-89
2022/01/31 06:17:47;;;;;;;;;;;;;;;4.74;60.99;99760.41;5019322;28;1821;-89
2022/01/31 06:20:13;;;;;;;;;;;;;;;4.71;61.20;99755.47;5036999;28;2084;-90
2022/01/31 06:22:40;;;;;;;;;;;;;;;4.74;61.17;99739.06;5037787;28;2155;-89
2022/01/31 06:25:06;;;;;;;;;;;;;;;4.74;61.01;99750.56;5035958;28;1614;-89
2022/01/31 06:27:33;;;;;;;;;;;;;;;4.76;60.94;99743.19;5037128;28;1798;-89
2022/01/31 06:30:00;;;;;;;;;;;;;;;4.73;61.09;99746.22;5036296;28;1911;-90
2022/01/31 06:32:26;;;;;;;;;;;;;;;4.76;60.94;99745.84;5028403;28;1330;-89
2022/01/31 06:34:54;;;;;;;;;;;;;;;4.76;60.97;99729.84;5034530;28;2059;-89
2022/01/31 06:37:21;;;;;;;;;;;;;;;4.72;61.24;99739.25;5040984;28;1175;-89
2022/01/31 06:39:47;;;;;;;;;;;;;;;4.72;61.16;99755.25;5025229;28;1653;-89
2022/01/31 06:42:14;;;;;;;;;;;;;;;4.76;61.06;99753.84;5034901;28;2044;-89
2022/01/31 06:44:41;;;;;;;;;;;;;;;4.71;61.28;99750.97;5022791;28;2127;-89
2022/01/31 06:47:08;;;;;;;;;;;;;;;4.78;61.00;99748.31;5022141;28;1661;-90
2022/01/31 06:49:34;;;;;;;;;;;;;;;4.72;61.21;99751.78;5038897;28;1906;-89
2022/01/31 06:52:01;;;;;;;;;;;;;;;4.75;61.00;99754.03;5040391;28;1523;-90
2022/01/31 06:54:27;;;;;;;;;;;;;;;4.71;61.15;99750.97;5039243;28;1832;-88
2022/01/31 06:56:56;;;;;;;;;;;;;;;4.72;61.18;99752.59;5040589;28;1203;-89
2022/01/31 06:59:23;;;;;;;;;;;;;;;4.71;61.23;99756.28;5032034;28;1925;-89
2022/01/31 07:01:49;;;;;;;;;;;;;;;4.78;60.88;99761.63;5040058;28;1842;-88
2022/01/31 07:04:16;;;;;;;;;;;;;;;4.81;60.72;99765.75;5039153;28;1929;-88
2022/01/31 07:06:43;;;;;;;;;;;;;;;4.77;60.89;99773.34;5021720;28;1916;-89
2022/01/31 07:09:09;;;;;;;;;;;;;;;4.78;60.88;99775.78;5023465;28;1902;-90
2022/01/31 07:11:40;;;;;;;;;;;;;;;4.73;61.10;99775.56;5035202;28;1918;-89
2022/01/31 07:14:23;;;;;;;;;;;;;;;4.69;61.07;99769.00;5032561;28;1231;-90
2022/01/31 07:16:50;;;;;;;;;;;;;;;4.81;61.10;99779.91;5030141;28;1699;-89
2022/01/31 07:19:19;;;;;;;;;;;;;;;4.75;60.96;99786.88;5033670;28;1843;-89
2022/01/31 07:21:49;;;;;;;;;;;;;;;4.72;61.03;99784.59;5050592;28;1640;-89
2022/01/31 07:24:22;;;;;;;;;;;;;;;4.76;61.10;99787.69;5040451;28;2078;-88
2022/01/31 07:26:49;;;;;;;;;;;;;;;4.70;61.08;99789.31;5038150;28;1683;-90
2022/01/31 07:29:16;;;;;;;;;;;;;;;4.75;60.64;99786.88;5032433;28;1744;-90
2022/01/31 07:31:43;;;;;;;;;;;;;;;4.73;60.99;99793.41;5023599;28;1979;-90
2022/01/31 07:34:12;;;;;;;;;;;;;;;4.73;61.14;99791.56;5040052;28;2278;-89
2022/01/31 07:36:39;;;;;;;;;;;;;;;4.76;60.85;99801.88;5044421;28;1409;-90
2022/01/31 07:39:05;;;;;;;;;;;;;;;4.80;60.80;99791.63;5048555;28;1767;-91
2022/01/31 07:41:32;;;;;;;;;;;;;;;4.75;60.94;99794.06;5032754;28;1636;-90
2022/01/31 07:43:59;;;;;;;;;;;;;;;4.77;61.06;99798.16;5034173;28;2051;-90
2022/01/31 07:46:25;;;;;;;;;;;;;;;4.77;60.64;99800.03;5044824;28;1224;-90
2022/01/31 07:48:53;;;;;;;;;;;;;;;4.71;61.08;99790.16;5041067;28;1371;-90
2022/01/31 07:51:22;;;;;;;;;;;;;;;4.72;60.99;99791.78;5035467;28;1977;-91
2022/01/31 07:53:48;;;;;;;;;;;;;;;4.75;60.88;99797.53;5047113;28;1319;-90
2022/01/31 07:56:17;;;;;;;;;;;;;;;4.76;60.90;99801.03;5049569;28;1311;-91
2022/01/31 07:58:44;;;;;;;;;;;;;;;4.75;61.14;99797.53;5044720;28;1468;-90
2022/01/31 08:01:10;;;;;;;;;;;;;;;4.81;60.61;99795.09;5042945;28;1841;-90
2022/01/31 08:03:37;;;;;;;;;;;;;;;4.77;60.99;99808.03;5039313;28;1288;-90
2022/01/31 08:06:04;;;;;;;;;;;;;;;4.80;60.78;99806.81;5038272;28;1250;-91
2022/01/31 08:08:31;;;;;;;;;;;;;;;4.82;60.61;99800.22;5042215;28;1929;-90
2022/01/31 08:13:39;;;;;;;;;;;;;;;4.71;61.01;99809.66;5038684;23;2817;-89
2022/01/31 08:16:14;;;;;;;;;;;;;;;4.73;60.97;99802.25;4945264;28;2115;-90
2022/01/31 08:18:40;;;;;;;;;;;;;;;4.73;60.99;99807.56;4947536;28;1540;-88
2022/01/31 08:21:07;;;;;;;;;;;;;;;4.76;60.99;99803.69;4962919;28;1382;-89
2022/01/31 08:23:34;;;;;;;;;;;;;;;4.76;61.07;99798.34;4942359;29;1572;-90
2022/01/31 08:26:01;;;;;;;;;;;;;;;4.75;61.13;99805.53;4948388;29;1302;-91
2022/01/31 08:28:34;;;;;;;;;;;;;;;4.81;60.68;99789.75;4947057;29;1720;-89
2022/01/31 08:31:07;;;;;;;;;;;;;;;4.78;60.78;99786.47;4945475;29;1914;-90
2022/01/31 08:33:36;;;;;;;;;;;;;;;4.75;61.01;99783.38;4944210;29;1736;-89
2022/01/31 08:36:03;;;;;;;;;;;;;;;4.80;60.62;99780.94;4943329;29;1336;-90
2022/01/31 08:38:30;;;;;;;;;;;;;;;4.83;60.81;99777.06;4953227;29;1309;-91
2022/01/31 08:40:57;;;;;;;;;;;;;;;4.80;60.88;99782.78;4942349;29;1790;-91
2022/01/31 08:43:24;;;;;;;;;;;;;;;4.80;60.76;99780.94;4946291;29;1242;-89
2022/01/31 08:45:53;;;;;;;;;;;;;;;4.80;60.83;99783.63;4953676;29;1210;-91
2022/01/31 08:48:20;;;;;;;;;;;;;;;4.78;60.93;99788.31;4962804;29;1808;-91
2022/01/31 08:50:47;;;;;;;;;;;;;;;4.77;60.72;99790.16;4968853;28;1887;-90
2022/01/31 08:53:14;;;;;;;;;;;;;;;4.80;60.80;99806.81;4952043;28;2596;-89
2022/01/31 08:55:41;;;;;;;;;;;;;;;4.79;60.94;99811.28;4946149;29;1931;-91
2022/01/31 08:58:10;;;;;;;;;;;;;;;4.76;60.89;99814.38;4943729;29;1376;-89
2022/01/31 09:00:37;;;;;;;;;;;;;;;4.79;60.73;99811.28;4945723;29;1307;-90
2022/01/31 09:03:21;;;;;;;;;;;;;;;4.84;60.78;99798.19;4951930;29;1780;-89
2022/01/31 09:05:48;;;;;;;;;;;;;;;4.75;61.08;99794.06;4945656;29;1204;-90
2022/01/31 09:08:15;;;;;;;;;;;;;;;4.78;60.76;99802.47;4949249;29;1353;-90
2022/01/31 09:10:43;;;;;;;;;;;;;;;4.78;60.91;99799.00;4951560;29;1899;-89
2022/01/31 09:13:12;;;;;;;;;;;;;;;4.75;60.96;99797.53;4954135;29;1686;-91
2022/01/31 09:15:38;;;;;;;;;;;;;;;4.79;60.79;99800.63;4953191;28;1281;-89
2022/01/31 09:18:05;;;;;;;;;;;;;;;4.75;61.00;99802.06;4946440;29;1732;-89
2022/01/31 09:20:32;;;;;;;;;;;;;;;4.73;61.24;99810.25;4928720;29;1825;-90
2022/01/31 09:23:02;;;;;;;;;;;;;;;4.81;60.92;99814.59;4936063;29;1254;-91
2022/01/31 09:25:29;;;;;;;;;;;;;;;4.78;61.02;99817.66;4947746;29;1207;-90
2022/01/31 09:28:03;;;;;;;;;;;;;;;4.87;60.51;99821.78;4972214;29;1030;-90
2022/01/31 09:30:33;;;;;;;;;;;;;;;4.77;60.99;99827.53;4946689;29;1883;-90
2022/01/31 09:33:00;;;;;;;;;;;;;;;4.81;60.94;99835.94;4950836;28;2323;-90
2022/01/31 09:35:29;;;;;;;;;;;;;;;4.80;60.91;99838.81;4960461;28;1427;-91
2022/01/31 09:37:56;;;;;;;;;;;;;;;4.78;61.11;99829.16;4953747;29;1663;-90
2022/01/31 09:40:23;;;;;;;;;;;;;;;4.80;60.98;99825.47;4956551;29;1655;-91
2022/01/31 09:43:01;;;;;;;;;;;;;;;4.80;60.95;99836.16;4933871;29;1783;-91
2022/01/31 09:45:53;;;;;;;;;;;;;;;4.81;60.78;99835.94;4956566;29;1281;-89
2022/01/31 09:48:33;;;;;;;;;;;;;;;4.83;61.04;99838.44;4947632;29;1789;-90
2022/01/31 09:51:02;;;;;;;;;;;;;;;4.81;60.88;99841.28;4961808;28;1891;-91
2022/01/31 09:53:32;;;;;;;;;;;;;;;4.84;60.92;99840.88;4964088;28;1792;-90
2022/01/31 09:58:41;;;;;;;;;;;;;;;4.80;60.86;99850.31;4953381;29;1618;-88
2022/01/31 10:01:12;;;;;;;;;;;;;;;4.83;60.97;99849.09;4969478;29;925;-90
2022/01/31 10:03:38;;;;;;;;;;;;;;;4.85;60.82;99849.69;4957501;29;1372;-90
2022/01/31 10:06:05;;;;;;;;;;;;;;;4.84;60.94;99854.22;4953692;29;1858;-91
2022/01/31 10:08:32;;;;;;;;;;;;;;;4.81;61.17;99867.97;4952975;29;1349;-91
2022/01/31 10:11:10;;;;;;;;;;;;;;;4.83;61.08;99871.25;4957200;29;1915;-90
2022/01/31 10:16:32;;;;;;;;;;;;;;;4.88;60.82;99871.50;4950547;28;1931;-91
2022/01/31 10:19:02;;;;;;;;;;;;;;;4.88;61.10;99873.31;4942585;29;1341;-89
2022/01/31 10:21:33;;;;;;;;;;;;;;;4.91;60.90;99871.09;4932454;29;1350;-91
2022/01/31 10:24:03;;;;;;;;;;;;;;;4.89;60.75;99877.66;4929487;29;1292;-91
2022/01/31 10:26:32;;;;;;;;;;;;;;;4.90;60.90;99876.63;4951391;29;1850;-92
2022/01/31 10:29:02;;;;;;;;;;;;;;;4.89;60.94;99870.47;4965212;29;1472;-91
2022/01/31 10:31:29;;;;;;;;;;;;;;;4.87;61.04;99869.00;4965199;29;1958;-92
2022/01/31 10:36:42;;;;;;;;;;;;;;;4.91;61.00;99865.75;4962630;29;1447;-91
2022/01/31 10:43:22;;;;;;;;;;;;;;;4.92;60.97;99867.41;4968346;29;940;-91
2022/01/31 10:45:22;;;;;;;;;;;;;;;4.91;61.05;99851.56;4952089;29;1279;-92
2022/01/31 10:51:02;;;;;;;;;;;;;;;4.94;60.88;99852.00;4969079;29;1938;-92
2022/01/31 10:54:04;;;;;;;;;;;;;;;4.93;61.03;99853.00;4970201;28;1409;-91
2022/01/31 10:56:33;;;;;;;;;;;;;;;4.93;61.06;99860.22;4937808;29;1328;-90
2022/01/31 11:02:16;;;;;;;;;;;;;;;4.95;61.10;99840.31;4975600;29;625;-92
2022/01/31 11:05:13;;;;;;;;;;;;;;;4.94;61.28;99833.34;4970823;29;705;-91
2022/01/31 11:08:06;;;;;;;;;;;;;;;4.94;61.15;99829.81;4974040;29;701;-91
2022/01/31 11:14:05;;;;;;;;;;;;;;;5.03;60.97;99833.13;4974021;28;1384;-93
2022/01/31 11:17:03;;;;;;;;;;;;;;;5.00;60.85;99829.84;4975344;29;669;-91
2022/01/31 11:26:21;;;;;;;;;;;;;;;5.04;60.94;99830.28;4973364;29;621;-92
2022/01/31 11:28:57;;;;;;;;;;;;;;;5.08;60.95;99828.84;4957853;29;1343;-93
2022/01/31 11:48:31;;;;;;;;;;;;;;;5.15;61.03;99820.88;4935627;29;934;-91
2022/01/31 11:51:06;;;;;;;;;;;;;;;5.13;60.89;99822.91;4970959;29;1954;-91
2022/01/31 12:09:25;;;;;;;;;;;;;;;5.18;60.96;99821.28;4979661;29;975;-92
2022/01/31 12:15:06;;;;;;;;;;;;;;;5.19;61.20;99820.25;4977210;29;1217;-91
2022/01/31 12:27:27;;;;;;;;;;;;;;;5.24;61.10;99811.63;4979637;29;1125;-90
2022/01/31 12:30:02;;;;;;;;;;;;;;;5.27;61.16;99815.75;4956712;29;1463;-91
2022/01/31 12:32:40;;;;;;;;;;;;;;;5.28;61.19;99804.03;4977364;28;1895;-90
2022/01/31 12:56:10;;;;;;;;;;;;;;;5.31;61.42;99787.63;4956211;29;1401;-95
2022/01/31 13:01:22;;;;;;;;;;;;;;;5.30;61.21;99794.81;4941800;29;1447;-95
2022/01/31 13:04:17;;;;;;;;;;;;;;;5.34;61.08;99784.53;4958351;29;771;-96
2022/01/31 13:06:49;;;;;;;;;;;;;;;5.35;61.32;99789.66;4957666;29;1444;-95
2022/01/31 13:15:00;;;;;;;;;;;;;;;5.32;61.32;99784.72;4939068;29;1492;-93
2022/01/31 13:17:27;;;;;;;;;;;;;;;5.36;61.31;99787.84;4955142;29;1474;-94
2022/01/31 13:19:54;;;;;;;;;;;;;;;5.34;61.24;99789.88;4927728;29;1906;-94
2022/01/31 13:22:29;;;;;;;;;;;;;;;5.37;61.42;99781.44;4935178;29;1848;-94
2022/01/31 13:24:59;;;;;;;;;;;;;;;5.37;61.56;99781.44;4934921;29;1832;-93
2022/01/31 13:27:27;;;;;;;;;;;;;;;5.36;61.40;99783.31;4953385;29;1026;-94
2022/01/31 13:29:55;;;;;;;;;;;;;;;5.35;61.46;99792.31;4950993;29;1539;-93
2022/01/31 13:32:23;;;;;;;;;;;;;;;5.38;61.47;99791.09;4950272;29;1966;-94
2022/01/31 13:34:52;;;;;;;;;;;;;;;5.35;61.35;99794.19;4955925;29;1373;-96
2022/01/31 13:37:20;;;;;;;;;;;;;;;5.35;61.34;99795.00;4938296;29;1211;-94
2022/01/31 13:39:47;;;;;;;;;;;;;;;5.35;61.40;99784.31;4953349;29;1364;-94
2022/01/31 13:42:33;;;;;;;;;;;;;;;5.35;61.56;99797.66;4964264;29;1263;-95
2022/01/31 13:45:04;;;;;;;;;;;;;;;5.35;61.45;99795.00;4936621;29;1024;-96
2022/01/31 13:47:37;;;;;;;;;;;;;;;5.41;61.26;99796.03;4953380;29;1762;-94
2022/01/31 13:50:12;;;;;;;;;;;;;;;5.38;61.56;99802.63;4936129;29;1972;-94
2022/01/31 13:52:39;;;;;;;;;;;;;;;5.36;61.42;99798.50;4949806;29;1947;-94
2022/01/31 13:55:06;;;;;;;;;;;;;;;5.37;61.39;99792.13;4932275;29;1348;-94
2022/01/31 13:57:33;;;;;;;;;;;;;;;5.37;61.43;99800.16;4936100;29;1121;-94
2022/01/31 13:59:59;;;;;;;;;;;;;;;5.36;61.46;99799.31;4930643;29;2255;-94
2022/01/31 14:02:26;;;;;;;;;;;;;;;5.36;61.40;99787.84;4928037;29;1202;-95
2022/01/31 14:04:52;;;;;;;;;;;;;;;5.36;61.61;99788.66;4930355;29;1223;-94
2022/01/31 14:07:22;;;;;;;;;;;;;;;5.37;61.35;99792.94;4933384;29;1399;-93
2022/01/31 14:09:49;;;;;;;;;;;;;;;5.39;61.45;99790.09;4934648;29;1830;-95
2022/01/31 14:12:16;;;;;;;;;;;;;;;5.37;61.68;99790.28;4930979;29;2721;-95
2022/01/31 14:14:43;;;;;;;;;;;;;;;5.37;61.41;99789.47;4931115;29;2235;-94
2022/01/31 14:17:09;;;;;;;;;;;;;;;5.39;61.61;99782.09;4935577;29;1660;-95
2022/01/31 14:19:36;;;;;;;;;;;;;;;5.38;61.52;99783.94;4932781;29;1852;-94
2022/01/31 14:22:03;;;;;;;;;;;;;;;5.38;61.66;99783.09;4948973;29;1790;-94
2022/01/31 14:24:31;;;;;;;;;;;;;;;5.39;61.40;99784.75;4947095;29;1847;-95
2022/01/31 14:27:02;;;;;;;;;;;;;;;5.39;61.60;99779.41;4943389;29;1347;-95
2022/01/31 14:29:29;;;;;;;;;;;;;;;5.41;61.38;99778.19;4958083;29;1277;-95
2022/01/31 14:31:56;;;;;;;;;;;;;;;5.43;61.46;99784.13;4949741;29;1891;-94
2022/01/31 14:34:23;;;;;;;;;;;;;;;5.43;61.70;99780.63;4931859;29;1491;-93
2022/01/31 14:36:51;;;;;;;;;;;;;;;5.43;61.73;99780.63;4933237;29;1280;-94
2022/01/31 14:39:32;;;;;;;;;;;;;;;5.40;61.57;99775.69;4935138;29;1785;-94
2022/01/31 14:42:07;;;;;;;;;;;;;;;5.43;61.52;99781.44;4937882;29;1210;-94
2022/01/31 14:47:26;;;;;;;;;;;;;;;5.41;61.73;99782.69;4933391;29;1361;-94
2022/01/31 14:49:53;;;;;;;;;;;;;;;5.40;61.56;99773.84;4950253;29;1459;-94
2022/01/31 14:52:21;;;;;;;;;;;;;;;5.42;61.75;99773.66;4950347;29;1992;-94
2022/01/31 14:54:51;;;;;;;;;;;;;;;5.38;61.85;99778.59;4933602;29;1430;-94
2022/01/31 14:57:18;;;;;;;;;;;;;;;5.39;61.88;99771.41;4937282;29;1351;-95
2022/01/31 14:59:45;;;;;;;;;;;;;;;5.39;61.74;99766.88;4938630;29;1844;-95
2022/01/31 15:02:12;;;;;;;;;;;;;;;5.41;61.71;99763.97;4939043;29;1621;-94
2022/01/31 15:04:44;;;;;;;;;;;;;;;5.41;61.79;99751.47;4954815;29;1531;-96